EmailTwitter


Surface observations / Quebec / CYUL (71627)

Regions: Quebec | Canada | USA | Europe | France | UK | Elsewhere
Station
Display
Info & Location for CYUL (71627) | Help decoding METAR

Weather Conditions observed on 2017/08/18 at 14:00 UTC at MONTREAL INTL A, QB (CYUL)

Sky conditions: overcast.

Obstruction(s) to Vision: light drizzle and fog.

Temperature: 17.0 Celsius.

Dewpoint: 17.0 Celsius.

Relative Humidity: 100%

Humidex: 22.

Winds: Northeast at 11 km/h or 6 knots.

Mean Sea level Pressure: 100.78 kilopascals.

Altimeter Setting (QNH): 100.78 kilopascals or 29.76 inches of mercury.

Horizontal visibility: 4.00 statute miles or 6.40 kilometers.

Height of the Ceiling: 152 metres ( 500 feet ).

Coded METAR:

CYUL 181400Z 06006KT 030V090 4SM -DZ BR OVC005 17/17 A2976 RMK ST8 SLP078

DENSITY ALT 600FT=